• Join FlightAware (Why Join?)
  • Login
  • US Flag 
07:32PM EDT


 

Airport Tracker/Info


-or-


 

Live Flight TrackerFlight Track Log ✈ N80X ✈ 27-Apr-2013 ✈ KTEB - KMQJ

Flight Track Log - Related Links

Times and Time Zones

All times are in EDT time to prevent confusion due to time zone crossing. See the N80X flight status page for this flight to view local times or setup timezone preferences in your user account.

Time Position Orientation Groundspeed Altitude Reporting Facility
EDT Latitude Longitude Course Direction KTS MPH feet Rate Location/Type
12:38AM 40.9000 -74.1333 270° West 270 311 5,600  Level New York TRACON
12:40AM 40.8878 -74.3092 265° West 286 329 13,600 3,780 Climbing New York Center
12:41AM 40.8758 -74.4319 263° West 299 344 17,000 1,740 Climbing New York Center
12:42AM 40.8639 -74.5411 262° West 326 375 17,100  Climbing New York Center
12:43AM 40.8492 -74.6747 262° West 342 394 17,100 1,080 Level New York Center
12:44AM 40.8394 -74.7811 263° West 342 394 19,300 2,700 Climbing New York Center
12:45AM 40.8269 -74.8983 262° West 336 387 22,600 3,180 Climbing New York Center
12:46AM 40.8228 -75.0158 267° West 331 381 25,700 2,880 Climbing New York Center
12:47AM 40.8206 -75.1364 269° West 326 375 28,400 2,820 Climbing New York Center
12:48AM 40.8142 -75.2483 266° West 320 368 31,400 2,700 Climbing New York Center
12:49AM 40.8122 -75.3581 269° West 314 361 33,800 2,160 Climbing New York Center
12:50AM 40.8100 -75.4647 268° West 307 353 35,800 1,920 Climbing New York Center
12:51AM 40.8058 -75.5714 267° West 302 348 37,700 1,500 Climbing New York Center
12:52AM 40.8033 -75.6808 268° West 302 348 38,800 1,140 Climbing New York Center
12:53AM 40.8008 -75.7903 268° West 302 348 40,000 600 Climbing New York Center
12:54AM 40.7978 -75.9108 268° West 316 364 40,000  Level New York Center
12:55AM 40.7942 -76.0367 268° West 330 380 40,000  Level New York Center
12:56AM 40.7903 -76.1681 268° West 353 406 40,000  Level New York Center
12:57AM 40.7864 -76.2992 268° West 359 413 40,000  Level New York Center
12:58AM 40.7842 -76.4333 269° West 364 419 40,000  Level New York Center
12:59AM 40.7794 -76.5728 267° West 369 425 40,000  Level New York Center
01:00AM 40.7714 -76.6981 265° West 364 419 40,000  Level New York Center
01:01AM 40.7686 -76.8322 268° West 364 419 40,000  Level New York Center
01:02AM 40.7636 -76.9689 267° West 364 419 40,000  Level New York Center
01:03AM 40.7589 -77.1000 267° West 364 419 40,000  Level New York Center
01:04AM 40.7558 -77.2311 268° West 364 419 40,000  Level New York Center
01:05AM 40.7442 -77.4833 267° West 366 421 40,000  Level Cleveland Center
01:06AM 40.7394 -77.6125 267° West 366 421 40,000  Level Cleveland Center
01:07AM 40.7322 -77.7417 266° West 366 421 40,000  Level Cleveland Center
01:08AM 40.7272 -77.8733 267° West 366 421 40,000  Level Cleveland Center
01:09AM 40.7217 -78.0022 267° West 366 421 40,000  Level Cleveland Center
01:10AM 40.7164 -78.1342 267° West 366 421 40,000  Level Cleveland Center
01:11AM 40.7106 -78.2631 267° West 366 421 40,000  Level Cleveland Center
01:12AM 40.7028 -78.3947 266° West 366 421 40,000  Level Cleveland Center
01:13AM 40.6989 -78.5236 268° West 366 421 40,000  Level Cleveland Center
01:14AM 40.6908 -78.6553 265° West 366 421 40,000  Level Cleveland Center
01:15AM 40.6847 -78.7842 266° West 366 421 40,000  Level Cleveland Center
01:16AM 40.6783 -78.9131 266° West 366 421 40,000  Level Cleveland Center
01:17AM 40.6719 -79.0556 267° West 366 421 40,000  Level Cleveland Center
01:18AM 40.6653 -79.1844 266° West 366 421 40,000  Level Cleveland Center
01:19AM 40.6564 -79.3133 265° West 366 421 40,000  Level Cleveland Center
01:20AM 40.6494 -79.4419 266° West 366 421 40,000  Level Cleveland Center
01:21AM 40.6422 -79.5706 266° West 366 421 40,000  Level Cleveland Center
01:22AM 40.6350 -79.6994 266° West 366 421 40,000  Level Cleveland Center
01:23AM 40.6275 -79.8144 265° West 366 421 40,000  Level Cleveland Center
01:24AM 40.6200 -79.9431 266° West 366 421 40,000  Level Cleveland Center
01:25AM 40.6081 -80.0744 263° West 366 421 40,000  Level Cleveland Center
01:26AM 40.6003 -80.2031 265° West 366 421 40,000  Level Cleveland Center
01:27AM 40.5922 -80.3342 265° West 366 421 40,000  Level Cleveland Center
01:28AM 40.5861 -80.4600 266° West 366 421 40,000  Level Cleveland Center
01:29AM 40.5778 -80.5886 265° West 366 421 40,000  Level Cleveland Center
01:30AM 40.5694 -80.7169 265° West 366 421 40,000  Level Cleveland Center
01:31AM 40.5589 -80.8508 264° West 366 421 40,000  Level Cleveland Center
01:34AM 40.5350 -81.1497 264° West 359 413 40,000  Level Indianapolis Center
01:35AM 40.5258 -81.2831 265° West 361 415 40,000  Level Indianapolis Center
01:36AM 40.5158 -81.4158 264° West 362 417 40,000  Level Indianapolis Center
01:37AM 40.5067 -81.5486 265° West 361 415 40,000  Level Indianapolis Center
01:38AM 40.4958 -81.6811 264° West 361 415 40,000  Level Indianapolis Center
01:39AM 40.4850 -81.8139 264° West 361 415 40,000  Level Indianapolis Center
01:40AM 40.4747 -81.9472 264° West 362 417 40,000  Level Indianapolis Center
01:41AM 40.4644 -82.0786 264° West 359 413 40,000  Level Indianapolis Center
01:42AM 40.4531 -82.2103 264° West 359 413 40,000  Level Indianapolis Center
01:43AM 40.4433 -82.3383 264° West 351 404 40,000  Level Indianapolis Center
01:44AM 40.4325 -82.4675 264° West 353 406 40,000  Level Indianapolis Center
01:45AM 40.4211 -82.5964 263° West 353 406 40,000  Level Indianapolis Center
01:46AM 40.4100 -82.7231 263° West 348 400 40,000  Level Indianapolis Center
01:47AM 40.4000 -82.8400 264° West 347 399 40,000  Level Indianapolis Center
01:48AM 40.3889 -82.9658 263° West 345 397 40,000  Level Indianapolis Center
01:49AM 40.3775 -83.0919 263° West 346 398 40,000  Level Indianapolis Center
01:50AM 40.3592 -83.2167 259° West 349 402 40,000 -420 Level Indianapolis Center
01:51AM 40.3356 -83.3389 256° West 345 397 39,200 -1,020 Descending Indianapolis Center
01:52AM 40.3136 -83.4575 256° West 338 389 38,000 -1,380 Descending Indianapolis Center
01:53AM 40.2925 -83.5733 257° West 329 379 36,500 -1,320 Descending Indianapolis Center
01:54AM 40.2736 -83.6806 257° West 308 354 35,400 -1,320 Descending Indianapolis Center
01:55AM 40.2547 -83.7833 256° West 293 337 33,900 -1,500 Descending Indianapolis Center
01:56AM 40.2356 -83.8858 256° West 289 333 32,400 -1,500 Descending Indianapolis Center
01:57AM 40.2172 -83.9831 256° West 275 316 30,900 -1,500 Descending Indianapolis Center
01:58AM 40.1997 -84.0828 257° West 276 318 29,400 -1,500 Descending Indianapolis Center
01:59AM 40.1814 -84.1817 256° West 278 320 27,900 -1,380 Descending Indianapolis Center
02:00AM 40.1608 -84.2892 256° West 298 343 26,700 -1,680 Descending Indianapolis Center
02:01AM 40.1403 -84.4033 257° West 321 369 24,600 -2,160 Descending Indianapolis Center
02:02AM 40.1161 -84.5258 256° West 341 392 22,400 -2,280 Descending Indianapolis Center
02:03AM 40.0903 -84.6533 255° West 357 411 20,100 -2,340 Descending Indianapolis Center
02:04AM 40.0661 -84.7756 256° West 351 404 17,700 -2,040 Descending Indianapolis Center
02:05AM 40.0428 -84.8914 255° West 335 386 16,100 -1,740 Descending Indianapolis Center
02:06AM 40.0247 -84.9961 257° West 308 354 14,300 -1,920 Descending Indianapolis Center
02:07AM 40.0014 -85.1061 255° West 310 357 12,300 -1,800 Descending Indianapolis Center
02:08AM 39.9786 -85.2194 255° West 318 366 10,800 -1,680 Descending Indianapolis Center
02:09AM 39.9631 -85.3175 258° West 289 333 9,000 -1,680 Descending Indianapolis Center
02:10AM 39.9533 -85.4039 262° West 255 293 7,500 -1,200 Descending Indianapolis Center
02:11AM 39.9469 -85.4719 263° West 236 272 6,600 -900 Descending Indianapolis Center
02:13AM 39.8833 -85.6420 270° West  Level FlightAware Approximate
02:20AM 39.8333 -85.8833 247° West  Level FlightAware Approximate
02:21AM 39.8435 -85.8971 247° West  Level Estimated